createdAt,value
2022-08-11T04:00:37.108Z,43.77
2022-08-11T04:01:37.102Z,43.49
2022-08-11T04:02:37.305Z,43.27
2022-08-11T04:03:37.053Z,43.99
2022-08-11T04:04:37.029Z,44.09
2022-08-11T04:05:37.018Z,44.20
2022-08-11T04:06:37.010Z,43.99
2022-08-11T04:07:36.995Z,43.79
2022-08-11T04:08:36.994Z,43.79
2022-08-11T04:09:36.972Z,43.90
2022-08-11T04:10:36.994Z,43.99
2022-08-11T04:11:41.974Z,43.79
2022-08-11T04:12:37.198Z,43.70
2022-08-11T04:13:36.946Z,44.21
2022-08-11T04:14:36.915Z,44.51
2022-08-11T04:15:36.906Z,44.62
2022-08-11T04:16:36.895Z,44.20
2022-08-11T04:17:36.883Z,44.32
2022-08-11T04:18:36.887Z,44.62
2022-08-11T04:19:36.865Z,44.62
2022-08-11T04:20:36.850Z,44.42
2022-08-11T04:21:36.842Z,44.51
2022-08-11T04:22:41.849Z,44.62
2022-08-11T04:24:34.929Z,44.51
2022-08-11T04:24:39.814Z,44.32
2022-08-11T04:25:57.616Z,44.62
2022-08-11T04:26:37.785Z,44.21
2022-08-11T04:27:39.073Z,44.20
2022-08-11T04:28:43.036Z,44.59
2022-08-11T04:30:03.547Z,44.62
2022-08-11T04:30:39.340Z,44.42
2022-08-11T04:31:51.413Z,44.92
2022-08-11T04:32:37.868Z,44.92
2022-08-11T04:33:41.746Z,45.51
2022-08-11T04:34:36.698Z,44.92
2022-08-11T04:35:36.684Z,45.51
2022-08-11T04:36:36.675Z,44.92
2022-08-11T04:37:36.663Z,44.82
2022-08-11T04:38:36.663Z,44.92
2022-08-11T04:39:36.661Z,44.71
2022-08-11T04:40:36.635Z,44.71
2022-08-11T04:41:36.621Z,45.01
2022-08-11T04:42:36.608Z,44.92
2022-08-11T04:43:36.617Z,44.71
2022-08-11T04:44:42.604Z,44.82
2022-08-11T04:45:36.575Z,44.39
2022-08-11T04:46:36.566Z,44.62
2022-08-11T04:48:01.858Z,44.39
2022-08-11T04:48:37.559Z,44.89
2022-08-11T04:49:36.563Z,45.50
2022-08-11T04:50:36.515Z,45.01
2022-08-11T04:51:36.509Z,44.70
2022-08-11T04:52:38.305Z,44.89
2022-08-11T04:53:36.486Z,44.70
2022-08-11T04:54:36.480Z,44.89
2022-08-11T04:55:41.484Z,45.20
2022-08-11T04:56:36.456Z,44.92
2022-08-11T04:57:36.439Z,44.79
2022-08-11T04:58:36.429Z,44.59
2022-08-11T04:59:36.434Z,45.09
2022-08-11T05:00:36.407Z,44.39
2022-08-11T05:01:37.602Z,45.29
2022-08-11T05:02:36.541Z,45.69
2022-08-11T05:03:36.394Z,45.59
2022-08-11T05:04:36.377Z,45.51
2022-08-11T05:05:36.353Z,45.42
2022-08-11T05:06:41.361Z,45.50
2022-08-11T05:07:36.328Z,45.51
2022-08-11T05:08:36.316Z,45.09
2022-08-11T05:09:36.317Z,45.59
2022-08-11T05:10:43.080Z,46.19
2022-08-11T05:11:37.285Z,46.01
2022-08-11T05:12:36.424Z,46.31
2022-08-11T05:13:36.265Z,46.31
2022-08-11T05:14:36.266Z,46.51
2022-08-11T05:15:42.982Z,46.30
2022-08-11T05:16:37.226Z,46.19
2022-08-11T05:17:41.252Z,46.19
2022-08-11T05:18:36.205Z,46.50
2022-08-11T05:19:36.216Z,46.39
2022-08-11T05:20:36.184Z,46.22
2022-08-11T05:21:44.676Z,46.30
2022-08-11T05:22:37.440Z,46.39
2022-08-11T05:23:36.154Z,46.19
2022-08-11T05:24:36.153Z,46.19
2022-08-11T05:26:44.509Z,46.39
2022-08-11T05:26:46.220Z,46.50
2022-08-11T05:27:37.106Z,46.09
2022-08-11T05:28:41.116Z,46.39
2022-08-11T05:29:36.094Z,46.69
2022-08-11T05:30:36.078Z,47.09
2022-08-11T05:31:36.063Z,46.30
2022-08-11T05:32:36.066Z,46.19
2022-08-11T05:33:36.040Z,46.50
2022-08-11T05:34:36.047Z,46.50
2022-08-11T05:36:02.267Z,46.00
2022-08-11T05:36:37.009Z,46.80
2022-08-11T05:37:35.997Z,46.80
2022-08-11T05:38:36.002Z,47.19
2022-08-11T05:39:41.089Z,46.77
2022-08-11T05:40:35.963Z,46.09
2022-08-11T05:41:35.949Z,45.97
2022-08-11T05:42:35.940Z,46.37
2022-08-11T05:43:35.942Z,46.37
2022-08-11T05:44:35.924Z,46.27
2022-08-11T05:46:02.832Z,46.57
2022-08-11T05:46:36.896Z,46.07
2022-08-11T05:47:35.883Z,46.37
2022-08-11T05:48:35.886Z,46.07
2022-08-11T05:49:35.877Z,47.07
2022-08-11T05:50:40.883Z,46.77
2022-08-11T05:51:35.839Z,46.45
2022-08-11T05:52:41.614Z,46.95
2022-08-11T05:53:46.106Z,46.05
2022-08-11T05:54:36.809Z,46.65
2022-08-11T05:55:35.794Z,46.35
2022-08-11T05:56:36.783Z,46.25
2022-08-11T05:57:44.048Z,45.55
2022-08-11T05:58:41.299Z,45.53
2022-08-11T05:59:36.770Z,45.53
2022-08-11T06:00:35.740Z,46.13
2022-08-11T06:01:40.807Z,45.73
2022-08-11T06:02:35.802Z,45.93
2022-08-11T06:03:35.705Z,46.03
2022-08-11T06:04:35.709Z,45.83
2022-08-11T06:05:38.362Z,45.93
2022-08-11T06:06:36.678Z,46.41
2022-08-11T06:07:49.025Z,46.11
2022-08-11T06:08:36.652Z,45.40
2022-08-11T06:09:35.652Z,45.10
2022-08-11T06:10:35.631Z,45.78
2022-08-11T06:11:42.985Z,44.67
2022-08-11T06:12:41.931Z,44.67
2022-08-11T06:13:35.605Z,45.17
2022-08-11T06:14:35.586Z,44.37
2022-08-11T06:15:35.572Z,44.27
2022-08-11T06:16:35.564Z,44.17
2022-08-11T06:17:38.638Z,44.54
2022-08-11T06:18:35.667Z,43.77
2022-08-11T06:19:35.530Z,43.47
2022-08-11T06:20:35.519Z,44.54
2022-08-11T06:21:35.521Z,43.55
2022-08-11T06:22:35.505Z,43.75
2022-08-11T06:23:40.538Z,43.95
2022-08-11T06:24:35.488Z,44.15
2022-08-11T06:25:35.470Z,44.05
2022-08-11T06:26:49.591Z,44.12
2022-08-11T06:27:36.446Z,43.33
2022-08-11T06:28:35.461Z,43.60
2022-08-11T06:29:37.855Z,43.16
2022-08-11T06:30:36.421Z,41.63
2022-08-11T06:31:35.399Z,40.41
2022-08-11T06:32:35.387Z,39.07
2022-08-11T06:33:35.390Z,38.85
2022-08-11T06:34:40.408Z,39.77
2022-08-11T06:35:35.355Z,39.57
2022-08-11T06:36:35.345Z,39.09
2022-08-11T06:37:36.719Z,38.90
2022-08-11T06:38:35.332Z,40.30
2022-08-11T06:39:35.354Z,40.11
2022-08-11T06:40:35.300Z,40.42
2022-08-11T06:41:35.298Z,40.52
2022-08-11T06:42:35.286Z,40.82
2022-08-11T06:43:35.277Z,40.82
2022-08-11T06:44:35.257Z,40.34
2022-08-11T06:45:40.263Z,40.74
2022-08-11T06:46:35.296Z,41.16
2022-08-11T06:47:35.221Z,41.55
2022-08-11T06:48:35.225Z,41.17
2022-08-11T06:49:35.199Z,41.25
2022-08-11T06:50:35.192Z,41.25
2022-08-11T06:51:35.176Z,41.06
2022-08-11T06:52:36.372Z,41.36
2022-08-11T06:53:35.165Z,41.46
2022-08-11T06:54:35.153Z,41.25
2022-08-11T06:55:57.506Z,41.44
2022-08-11T06:56:41.146Z,41.55
2022-08-11T06:57:35.133Z,41.66
2022-08-11T06:58:35.115Z,41.55
2022-08-11T06:59:35.090Z,41.55
2022-08-11T07:00:35.079Z,41.55
2022-08-11T07:01:35.133Z,41.66
2022-08-11T07:02:35.359Z,41.66
2022-08-11T07:03:35.057Z,42.25
2022-08-11T07:04:35.043Z,41.36
2022-08-11T07:05:35.028Z,41.85
2022-08-11T07:06:41.525Z,42.35
2022-08-11T07:07:41.025Z,42.55
2022-08-11T07:08:35.947Z,41.85
2022-08-11T07:09:34.983Z,41.55
2022-08-11T07:10:34.974Z,41.95
2022-08-11T07:11:34.958Z,42.13
2022-08-11T07:12:34.950Z,41.83
2022-08-11T07:13:44.165Z,42.72
2022-08-11T07:14:38.438Z,41.83
2022-08-11T07:16:13.327Z,41.63
2022-08-11T07:16:35.912Z,41.93
2022-08-11T07:17:34.894Z,42.13
2022-08-11T07:18:39.919Z,41.22
2022-08-11T07:19:34.879Z,42.01
2022-08-11T07:20:34.859Z,40.62
2022-08-11T07:22:00.281Z,41.02
2022-08-11T07:22:35.853Z,40.70
2022-08-11T07:23:34.848Z,40.90
2022-08-11T07:24:59.317Z,40.11
2022-08-11T07:25:35.811Z,40.30
2022-08-11T07:26:34.797Z,39.81
2022-08-11T07:27:37.328Z,40.80
2022-08-11T07:28:34.773Z,40.70
2022-08-11T07:29:39.794Z,39.61
2022-08-11T07:30:34.749Z,39.81
2022-08-11T07:31:34.753Z,39.90
2022-08-11T07:32:34.742Z,39.81
2022-08-11T07:34:07.645Z,40.20
2022-08-11T07:34:35.727Z,39.21
2022-08-11T07:35:34.704Z,39.21
2022-08-11T07:36:34.708Z,39.21
2022-08-11T07:37:34.685Z,40.30
2022-08-11T07:38:34.674Z,38.92
2022-08-11T07:39:34.752Z,39.31
2022-08-11T07:40:39.665Z,39.59
2022-08-11T07:41:34.630Z,39.09
2022-08-11T07:42:34.618Z,39.19
2022-08-11T07:43:34.618Z,39.29
2022-08-11T07:44:35.477Z,38.90
2022-08-11T07:45:34.584Z,38.38
2022-08-11T07:46:34.578Z,38.28
2022-08-11T07:47:34.572Z,38.28
2022-08-11T07:48:34.569Z,38.18
2022-08-11T07:49:34.556Z,38.09
2022-08-11T07:50:34.553Z,37.98
2022-08-11T07:51:39.588Z,37.77
2022-08-11T07:52:34.571Z,37.17
2022-08-11T07:53:34.495Z,37.77
2022-08-11T07:54:35.502Z,38.17
2022-08-11T07:55:51.502Z,38.36
2022-08-11T07:56:47.993Z,38.07
2022-08-11T07:58:14.529Z,37.96
2022-08-11T07:58:45.198Z,37.67
2022-08-11T08:00:04.166Z,38.36
2022-08-11T08:00:35.443Z,37.77
2022-08-11T08:01:34.459Z,38.56
2022-08-11T08:02:39.543Z,37.77
2022-08-11T08:03:34.399Z,38.26
2022-08-11T08:04:34.398Z,38.36
2022-08-11T08:05:34.365Z,38.26
2022-08-11T08:06:36.030Z,37.87
2022-08-11T08:07:34.368Z,37.96
2022-08-11T08:08:34.392Z,38.07
2022-08-11T08:09:34.343Z,38.07
2022-08-11T08:10:34.314Z,37.77
2022-08-11T08:11:34.317Z,38.36
2022-08-11T08:12:34.295Z,37.57
2022-08-11T08:13:39.302Z,38.17
2022-08-11T08:14:34.290Z,38.05
2022-08-11T08:15:34.255Z,37.85
2022-08-11T08:16:34.245Z,37.95
2022-08-11T08:17:34.233Z,37.83
2022-08-11T08:18:34.223Z,36.64
2022-08-11T08:19:34.214Z,36.74
2022-08-11T08:20:34.234Z,37.13
2022-08-11T08:21:34.190Z,37.13
2022-08-11T08:22:38.244Z,37.53
2022-08-11T08:23:35.168Z,36.84
2022-08-11T08:24:39.196Z,37.34
2022-08-11T08:25:34.149Z,36.82
2022-08-11T08:26:34.143Z,37.02
2022-08-11T08:27:34.129Z,37.12
2022-08-11T08:28:34.126Z,36.33
2022-08-11T08:29:34.107Z,36.82
2022-08-11T08:30:34.109Z,37.02
2022-08-11T08:31:34.090Z,36.72
2022-08-11T08:32:34.074Z,36.82
2022-08-11T08:33:34.061Z,36.82
2022-08-11T08:34:34.054Z,38.01
2022-08-11T08:35:55.744Z,36.72
2022-08-11T08:36:35.032Z,37.30
2022-08-11T08:37:46.026Z,36.71
2022-08-11T08:38:35.017Z,36.80
2022-08-11T08:39:34.056Z,36.61
2022-08-11T08:40:34.001Z,36.69
2022-08-11T08:41:33.982Z,35.88
2022-08-11T08:42:34.010Z,35.78
2022-08-11T08:43:47.506Z,36.08
2022-08-11T08:44:39.259Z,35.38
2022-08-11T08:45:34.943Z,35.98
2022-08-11T08:46:38.947Z,35.88
2022-08-11T08:47:41.100Z,36.10
2022-08-11T08:48:34.902Z,35.28
2022-08-11T08:49:33.892Z,35.21
2022-08-11T08:50:33.895Z,36.29
2022-08-11T08:51:54.788Z,35.09
2022-08-11T08:52:39.156Z,36.08
2022-08-11T08:53:34.844Z,35.68
2022-08-11T08:54:33.838Z,35.19
2022-08-11T08:55:33.852Z,35.11
2022-08-11T08:56:33.815Z,35.80
2022-08-11T08:57:39.811Z,35.82
2022-08-11T08:58:33.797Z,35.82
2022-08-11T08:59:47.457Z,35.50
2022-08-11T09:00:34.816Z,35.70
2022-08-11T09:01:33.832Z,35.00
2022-08-11T09:02:35.104Z,35.19
2022-08-11T09:04:02.930Z,34.48
2022-08-11T09:04:34.726Z,34.79
2022-08-11T09:05:33.726Z,34.20
2022-08-11T09:06:33.709Z,34.79
2022-08-11T09:07:39.950Z,34.50
2022-08-11T09:08:39.714Z,34.48
2022-08-11T09:09:33.674Z,34.48
2022-08-11T09:10:33.670Z,34.39
2022-08-11T09:11:33.651Z,34.30
2022-08-11T09:12:36.077Z,34.28
2022-08-11T09:13:34.625Z,34.38
2022-08-11T09:14:33.616Z,34.58
2022-08-11T09:15:33.614Z,34.69
2022-08-11T09:16:33.595Z,34.28
2022-08-11T09:17:33.612Z,34.38
2022-08-11T09:18:33.921Z,34.38
2022-08-11T09:19:38.611Z,34.28
2022-08-11T09:20:33.561Z,34.08
2022-08-11T09:21:48.319Z,34.28
2022-08-11T09:22:34.532Z,34.59
2022-08-11T09:24:34.508Z,33.98
2022-08-11T09:25:33.509Z,34.18
2022-08-11T09:26:33.486Z,33.89
2022-08-11T09:27:33.562Z,34.67
2022-08-11T09:28:33.531Z,34.28
2022-08-11T09:29:33.454Z,34.10
2022-08-11T09:30:38.479Z,33.98
2022-08-11T09:31:37.197Z,34.48
2022-08-11T09:32:34.418Z,34.28
2022-08-11T09:33:33.406Z,34.76
2022-08-11T09:34:33.398Z,34.17
2022-08-11T09:35:33.397Z,34.27
2022-08-11T09:36:33.377Z,34.36
2022-08-11T09:37:55.633Z,34.56
2022-08-11T09:38:34.354Z,33.37
2022-08-11T09:39:33.404Z,33.85
2022-08-11T09:40:33.345Z,34.25
2022-08-11T09:41:55.620Z,32.75
2022-08-11T09:42:34.312Z,33.16
2022-08-11T09:43:33.304Z,32.85
2022-08-11T09:44:33.289Z,32.28
2022-08-11T09:45:40.127Z,33.36
2022-08-11T09:46:34.272Z,32.18
2022-08-11T09:47:33.266Z,33.37
2022-08-11T09:48:33.243Z,33.08
2022-08-11T09:49:33.239Z,33.16
2022-08-11T09:50:33.310Z,33.16
2022-08-11T09:51:33.224Z,32.57
2022-08-11T09:52:38.233Z,33.06
2022-08-11T09:53:36.730Z,33.26
2022-08-11T09:54:34.322Z,32.28
2022-08-11T09:55:33.188Z,33.06
2022-08-11T09:56:33.160Z,32.87
2022-08-11T09:57:33.199Z,33.25
2022-08-11T09:58:42.549Z,31.96
2022-08-11T09:59:34.144Z,32.44
2022-08-11T10:00:33.130Z,31.65
2022-08-11T10:01:33.223Z,31.56
2022-08-11T10:02:33.095Z,31.44
2022-08-11T10:03:40.275Z,31.44
2022-08-11T10:04:33.072Z,31.63
2022-08-11T10:05:33.076Z,30.85
2022-08-11T10:06:34.405Z,31.93
2022-08-11T10:07:33.042Z,31.44
2022-08-11T10:08:33.028Z,31.42
2022-08-11T10:09:33.019Z,30.94
2022-08-11T10:10:33.021Z,30.44
2022-08-11T10:11:33.002Z,30.24
2022-08-11T10:12:32.989Z,30.16
2022-08-11T10:14:31.429Z,29.96
2022-08-11T10:14:43.974Z,30.37
2022-08-11T10:15:34.017Z,30.16
2022-08-11T10:16:32.965Z,30.16
2022-08-11T10:17:33.051Z,29.86
2022-08-11T10:18:32.921Z,30.27
2022-08-11T10:19:32.913Z,30.45
2022-08-11T10:20:32.900Z,30.65
2022-08-11T10:21:32.904Z,30.55
2022-08-11T10:22:33.150Z,30.55
2022-08-11T10:23:32.880Z,30.26
2022-08-11T10:24:32.858Z,30.55
2022-08-11T10:25:32.846Z,30.45
2022-08-11T10:26:32.851Z,30.65
2022-08-11T10:28:16.876Z,30.06
2022-08-11T10:28:50.005Z,29.68
2022-08-11T10:29:37.578Z,29.68
2022-08-11T10:30:33.792Z,30.16
2022-08-11T10:31:45.222Z,29.94
2022-08-11T10:32:33.768Z,28.96
2022-08-11T10:33:37.670Z,28.95
2022-08-11T10:34:32.748Z,29.35
2022-08-11T10:35:32.740Z,29.06
2022-08-11T10:36:32.741Z,28.88
2022-08-11T10:38:08.306Z,29.57
2022-08-11T10:38:38.732Z,28.77
2022-08-11T10:39:32.764Z,29.17
2022-08-11T10:40:32.723Z,28.99
2022-08-11T10:41:32.692Z,29.19
2022-08-11T10:42:55.214Z,29.88
2022-08-11T10:44:02.192Z,29.60
2022-08-11T10:44:33.641Z,29.58
2022-08-11T10:45:32.631Z,28.79
2022-08-11T10:46:32.634Z,28.30
2022-08-11T10:47:32.618Z,28.97
2022-08-11T10:48:32.602Z,28.97
2022-08-11T10:49:32.593Z,28.86
2022-08-11T10:50:32.579Z,28.78
2022-08-11T10:51:50.714Z,28.88
2022-08-11T10:52:33.615Z,28.96
2022-08-11T10:53:32.572Z,28.27
2022-08-11T10:54:32.534Z,29.06
2022-08-11T10:55:32.532Z,28.66
2022-08-11T10:56:34.014Z,28.17
2022-08-11T10:57:32.649Z,28.27
2022-08-11T10:58:33.315Z,28.77
2022-08-11T10:59:32.483Z,28.77
2022-08-11T11:00:32.471Z,28.37
2022-08-11T11:01:32.539Z,28.65
2022-08-11T11:02:32.450Z,28.75
2022-08-11T11:03:32.544Z,29.24
2022-08-11T11:04:37.463Z,28.85
2022-08-11T11:05:32.443Z,28.26
2022-08-11T11:06:32.448Z,28.36
2022-08-11T11:07:32.402Z,28.36
2022-08-11T11:08:32.408Z,29.05
2022-08-11T11:09:32.692Z,29.05
2022-08-11T11:10:32.370Z,29.05
2022-08-11T11:11:32.375Z,27.86
2022-08-11T11:12:32.347Z,27.75
2022-08-11T11:13:32.333Z,27.95
2022-08-11T11:14:32.325Z,28.82
2022-08-11T11:15:32.309Z,27.25
2022-08-11T11:16:32.316Z,27.64
2022-08-11T11:17:37.310Z,27.44
2022-08-11T11:18:32.298Z,27.16
2022-08-11T11:19:32.294Z,27.56
2022-08-11T11:20:35.829Z,27.06
2022-08-11T11:21:33.263Z,27.06
2022-08-11T11:22:32.233Z,27.66
2022-08-11T11:23:32.226Z,27.05
2022-08-11T11:24:32.216Z,27.54
2022-08-11T11:25:32.210Z,27.95
2022-08-11T11:26:32.190Z,27.44
2022-08-11T11:27:32.191Z,26.85
2022-08-11T11:28:32.170Z,27.33
2022-08-11T11:29:32.164Z,27.53
2022-08-11T11:30:37.170Z,26.05
2022-08-11T11:31:32.162Z,27.14
2022-08-11T11:32:32.295Z,27.64
2022-08-11T11:33:32.125Z,27.44
2022-08-11T11:34:32.105Z,27.44
2022-08-11T11:35:32.117Z,27.84
2022-08-11T11:36:32.084Z,27.36
2022-08-11T11:37:32.088Z,27.85
2022-08-11T11:38:32.066Z,27.36
2022-08-11T11:39:32.099Z,27.56
2022-08-11T11:40:32.353Z,27.66
2022-08-11T11:41:32.035Z,27.36
2022-08-11T11:42:32.047Z,27.26
2022-08-11T11:43:37.042Z,27.45
2022-08-11T11:44:32.023Z,27.06
2022-08-11T11:45:32.012Z,27.26
2022-08-11T11:46:31.981Z,27.26
2022-08-11T11:47:32.977Z,27.05
2022-08-11T11:48:31.967Z,28.23
2022-08-11T11:49:31.951Z,27.05
2022-08-11T11:50:33.141Z,27.54
2022-08-11T11:51:31.924Z,27.04
2022-08-11T11:52:31.922Z,27.53
2022-08-11T11:53:31.905Z,26.43
2022-08-11T11:54:31.907Z,25.94
2022-08-11T11:55:31.912Z,26.04
2022-08-11T11:56:36.892Z,26.24
2022-08-11T11:57:31.894Z,26.73
2022-08-11T11:58:31.875Z,26.05
2022-08-11T11:59:31.839Z,26.04
2022-08-11T12:00:33.418Z,25.34
2022-08-11T12:01:31.818Z,25.02
2022-08-11T12:02:32.228Z,24.99
2022-08-11T12:03:31.846Z,24.38
2022-08-11T12:04:31.785Z,23.77
2022-08-11T12:05:31.776Z,24.05
2022-08-11T12:06:32.168Z,23.96
2022-08-11T12:07:31.793Z,24.05
2022-08-11T12:08:31.745Z,23.94
2022-08-11T12:09:36.758Z,23.35
2022-08-11T12:10:31.833Z,22.84
2022-08-11T12:11:31.743Z,23.51
2022-08-11T12:12:31.721Z,23.21
2022-08-11T12:13:31.693Z,22.80
2022-08-11T12:14:31.682Z,22.02
2022-08-11T12:16:04.449Z,22.72
2022-08-11T12:16:36.462Z,22.61
2022-08-11T12:17:32.121Z,22.31
2022-08-11T12:18:31.697Z,22.34
2022-08-11T12:19:35.592Z,22.81
2022-08-11T12:20:34.255Z,22.02
2022-08-11T12:21:31.614Z,22.02
2022-08-11T12:22:36.634Z,22.60
2022-08-11T12:23:31.595Z,22.21
2022-08-11T12:24:31.583Z,22.31
2022-08-11T12:25:31.573Z,22.39
2022-08-11T12:26:31.564Z,22.21
2022-08-11T12:27:31.559Z,22.60
2022-08-11T12:28:31.552Z,22.22
2022-08-11T12:29:31.538Z,21.95
2022-08-11T12:30:31.613Z,22.44
2022-08-11T12:31:31.515Z,22.33
2022-08-11T12:32:31.516Z,21.14
2022-08-11T12:33:39.459Z,21.92
2022-08-11T12:34:31.487Z,21.62
2022-08-11T12:35:31.473Z,22.22
2022-08-11T12:36:31.478Z,21.54
2022-08-11T12:37:31.518Z,21.54
2022-08-11T12:38:31.441Z,21.83
2022-08-11T12:40:16.095Z,21.61
2022-08-11T12:40:42.692Z,21.11
2022-08-11T12:41:32.532Z,20.32
2022-08-11T12:42:31.539Z,20.51
2022-08-11T12:43:38.354Z,20.50
2022-08-11T12:44:37.410Z,20.72
2022-08-11T12:45:31.376Z,21.61
2022-08-11T12:46:31.371Z,21.92
2022-08-11T12:47:31.360Z,22.45
2022-08-11T12:48:57.401Z,23.44
2022-08-11T12:49:32.338Z,22.98
2022-08-11T12:50:31.322Z,22.81
2022-08-11T12:51:31.312Z,23.81
2022-08-11T12:52:32.304Z,24.41
2022-08-11T12:53:31.302Z,24.59
2022-08-11T12:54:31.284Z,24.11
2022-08-11T12:55:36.297Z,24.22
2022-08-11T12:56:31.263Z,24.13
2022-08-11T12:57:37.185Z,24.63
2022-08-11T12:58:32.247Z,24.52
2022-08-11T12:59:31.231Z,24.73
2022-08-11T13:00:31.427Z,24.62
2022-08-11T13:01:31.335Z,24.52
2022-08-11T13:02:31.200Z,24.43
2022-08-11T13:03:31.200Z,24.14
2022-08-11T13:04:31.178Z,24.74
2022-08-11T13:05:31.175Z,24.15
2022-08-11T13:06:36.177Z,24.93
2022-08-11T13:07:50.611Z,24.74
2022-08-11T13:08:32.168Z,24.64
2022-08-11T13:09:31.125Z,24.44
2022-08-11T13:10:31.120Z,24.36
2022-08-11T13:11:56.743Z,24.26
2022-08-11T13:12:32.092Z,24.65
2022-08-11T13:13:55.698Z,24.16
2022-08-11T13:14:32.070Z,24.74
2022-08-11T13:15:31.062Z,24.26
2022-08-11T13:16:31.053Z,24.44
2022-08-11T13:17:44.145Z,24.44
2022-08-11T13:18:32.042Z,24.15
2022-08-11T13:19:36.041Z,24.74
2022-08-11T13:20:31.032Z,24.25
2022-08-11T13:21:31.035Z,25.82
2022-08-11T13:22:32.635Z,24.74
2022-08-11T13:23:30.986Z,24.44
2022-08-11T13:24:30.966Z,24.54
2022-08-11T13:25:30.956Z,23.67
2022-08-11T13:26:48.042Z,24.15
2022-08-11T13:27:31.940Z,24.46
2022-08-11T13:28:30.939Z,24.55
2022-08-11T13:29:30.914Z,25.03
2022-08-11T13:30:32.625Z,25.83
2022-08-11T13:31:30.894Z,25.72
2022-08-11T13:32:35.902Z,25.23
2022-08-11T13:33:30.911Z,25.13
2022-08-11T13:34:30.887Z,25.82
2022-08-11T13:35:30.853Z,25.52
2022-08-11T13:36:30.837Z,25.52
2022-08-11T13:38:17.486Z,25.13
2022-08-11T13:38:32.230Z,25.33
2022-08-11T13:39:30.966Z,24.84
2022-08-11T13:40:45.861Z,25.13
2022-08-11T13:41:31.784Z,25.23
2022-08-11T13:42:30.774Z,25.03
2022-08-11T13:43:30.787Z,25.52
2022-08-11T13:44:30.751Z,25.43
2022-08-11T13:45:35.780Z,25.33
2022-08-11T13:46:30.755Z,25.44
2022-08-11T13:47:30.746Z,25.04
2022-08-11T13:48:30.708Z,24.36
2022-08-11T13:49:30.714Z,24.75
2022-08-11T13:50:30.690Z,24.44
2022-08-11T13:51:34.760Z,24.93
2022-08-11T13:52:30.670Z,24.54
2022-08-11T13:53:30.659Z,25.23
2022-08-11T13:54:30.663Z,24.64
2022-08-11T13:55:45.121Z,24.74
2022-08-11T13:56:31.626Z,24.74
2022-08-11T13:58:08.423Z,24.65
2022-08-11T13:58:40.454Z,23.38
2022-08-11T13:59:31.401Z,24.06
2022-08-11T14:00:30.605Z,24.16
2022-08-11T14:02:21.286Z,23.86
2022-08-11T14:02:31.717Z,24.16
2022-08-11T14:04:30.204Z,24.36
2022-08-11T14:04:32.221Z,24.57
2022-08-11T14:05:30.529Z,24.47
2022-08-11T14:06:30.518Z,23.78
2022-08-11T14:07:30.507Z,24.57
2022-08-11T14:08:37.854Z,24.57
2022-08-11T14:09:31.496Z,24.17
2022-08-11T14:10:30.477Z,25.26
2022-08-11T14:12:23.700Z,24.66
2022-08-11T14:12:31.480Z,24.16
2022-08-11T14:13:41.209Z,24.55
2022-08-11T14:14:31.444Z,24.06
2022-08-11T14:15:30.421Z,24.65
2022-08-11T14:16:30.411Z,24.46
2022-08-11T14:17:47.038Z,24.55
2022-08-11T14:18:31.391Z,24.05
2022-08-11T14:19:30.387Z,24.15
2022-08-11T14:20:38.224Z,24.15
2022-08-11T14:21:31.356Z,24.15
2022-08-11T14:22:30.348Z,23.66
2022-08-11T14:23:30.335Z,23.95
2022-08-11T14:24:35.361Z,24.05
2022-08-11T14:25:59.352Z,24.05
2022-08-11T14:26:31.337Z,24.54
2022-08-11T14:27:46.059Z,24.15
2022-08-11T14:28:43.805Z,23.95
2022-08-11T14:29:31.283Z,24.15
2022-08-11T14:30:30.259Z,24.15
2022-08-11T14:31:30.249Z,24.05
2022-08-11T14:32:30.239Z,24.05
2022-08-11T14:33:58.844Z,24.15
2022-08-11T14:34:31.265Z,24.15
2022-08-11T14:35:30.205Z,24.15
2022-08-11T14:36:30.194Z,24.05
2022-08-11T14:37:35.205Z,24.25
2022-08-11T14:38:30.197Z,24.25
2022-08-11T14:39:30.240Z,24.25
2022-08-11T14:40:31.824Z,24.35
2022-08-11T14:41:30.141Z,24.63
2022-08-11T14:42:30.134Z,24.73
2022-08-11T14:44:02.770Z,24.24
2022-08-11T14:44:31.120Z,24.15
2022-08-11T14:45:58.425Z,24.05
2022-08-11T14:47:30.076Z,23.66
2022-08-11T14:48:30.156Z,23.75
2022-08-11T14:49:30.064Z,23.86
2022-08-11T14:50:35.071Z,23.56
2022-08-11T14:51:30.061Z,23.66
2022-08-11T14:52:30.048Z,23.66
2022-08-11T14:53:30.011Z,23.27
2022-08-11T14:54:30.013Z,23.95
2022-08-11T14:55:29.990Z,22.97
2022-08-11T14:56:29.980Z,23.55
2022-08-11T14:57:54.259Z,23.94
2022-08-11T14:58:30.959Z,24.24
2022-08-11T14:59:29.957Z,23.07
2022-08-11T15:00:29.972Z,23.84
2022-08-11T15:01:30.053Z,24.04
2022-08-11T15:02:29.919Z,23.55
2022-08-11T15:03:34.930Z,23.45
2022-08-11T15:04:29.919Z,23.45
2022-08-11T15:05:30.919Z,23.65
2022-08-11T15:06:29.873Z,23.65
2022-08-11T15:07:30.080Z,23.56
2022-08-11T15:08:29.853Z,23.66
2022-08-11T15:09:29.852Z,24.05
2022-08-11T15:10:29.886Z,23.38
2022-08-11T15:11:29.820Z,23.56
2022-08-11T15:12:32.687Z,23.77
2022-08-11T15:13:29.797Z,23.38
2022-08-11T15:14:29.790Z,24.15
2022-08-11T15:15:29.787Z,23.57
2022-08-11T15:16:34.795Z,24.36
2022-08-11T15:17:30.862Z,24.16
2022-08-11T15:18:30.771Z,23.75
2022-08-11T15:19:29.733Z,24.05
2022-08-11T15:20:30.747Z,24.25
2022-08-11T15:21:29.711Z,24.25
2022-08-11T15:22:29.705Z,24.05
2022-08-11T15:23:29.688Z,23.36
2022-08-11T15:24:31.158Z,24.06
2022-08-11T15:25:29.677Z,23.57
2022-08-11T15:26:29.658Z,23.38
2022-08-11T15:27:29.795Z,23.86
2022-08-11T15:28:29.639Z,23.96
2022-08-11T15:29:34.646Z,23.47
2022-08-11T15:30:32.833Z,23.38
2022-08-11T15:31:29.627Z,23.66
2022-08-11T15:32:29.594Z,23.66
2022-08-11T15:33:29.585Z,23.66
2022-08-11T15:34:29.585Z,23.56
2022-08-11T15:35:38.956Z,23.56
2022-08-11T15:36:30.555Z,23.36
2022-08-11T15:37:29.721Z,23.17
2022-08-11T15:38:29.530Z,23.36
2022-08-11T15:39:29.559Z,23.36
2022-08-11T15:40:31.978Z,23.75
2022-08-11T15:41:29.497Z,23.56
2022-08-11T15:42:34.545Z,23.75
2022-08-11T15:43:29.562Z,23.66
2022-08-11T15:45:00.615Z,23.46
2022-08-11T15:45:30.461Z,23.66
2022-08-11T15:46:29.459Z,23.35
2022-08-11T15:47:29.503Z,23.56
2022-08-11T15:48:29.430Z,23.46
2022-08-11T15:50:12.040Z,23.75
2022-08-11T15:50:30.410Z,23.46
2022-08-11T15:51:29.393Z,23.95
2022-08-11T15:52:29.378Z,23.75
2022-08-11T15:53:29.366Z,24.05
2022-08-11T15:54:29.357Z,23.36
2022-08-11T15:55:34.380Z,23.56
2022-08-11T15:56:29.368Z,23.75
2022-08-11T15:57:29.383Z,23.46
2022-08-11T15:58:30.317Z,23.66
2022-08-11T15:59:42.397Z,23.36
2022-08-11T16:00:30.294Z,23.56
2022-08-11T16:01:29.351Z,23.75
2022-08-11T16:02:29.300Z,23.36
2022-08-11T16:03:54.375Z,23.28
2022-08-11T16:04:30.252Z,23.95
2022-08-11T16:05:45.930Z,23.38
2022-08-11T16:06:30.239Z,23.67
2022-08-11T16:07:29.243Z,24.26
2022-08-11T16:08:34.305Z,24.36
2022-08-11T16:09:29.194Z,23.86
2022-08-11T16:10:30.184Z,24.06
2022-08-11T16:11:29.191Z,24.05
2022-08-11T16:12:29.167Z,24.15
2022-08-11T16:13:29.151Z,24.35
2022-08-11T16:14:29.147Z,23.95
2022-08-11T16:15:29.131Z,23.66
2022-08-11T16:16:29.134Z,23.57
2022-08-11T16:17:29.160Z,23.67
2022-08-11T16:18:29.102Z,23.67
2022-08-11T16:19:34.111Z,23.67
2022-08-11T16:20:29.091Z,23.47
2022-08-11T16:21:35.214Z,23.57
2022-08-11T16:22:30.056Z,23.67
2022-08-11T16:23:29.045Z,23.78
2022-08-11T16:27:04.810Z,24.36
2022-08-11T16:27:04.892Z,23.77
2022-08-11T16:27:11.733Z,23.77
2022-08-11T16:27:30.004Z,23.47
2022-08-11T16:28:28.994Z,23.57
2022-08-11T16:29:28.982Z,23.96
2022-08-11T16:30:35.161Z,22.98
2022-08-11T16:31:28.971Z,23.97
2022-08-11T16:32:28.961Z,23.67
2022-08-11T16:33:50.143Z,23.57
2022-08-11T16:34:29.927Z,23.57
2022-08-11T16:35:28.916Z,24.16
2022-08-11T16:36:28.920Z,24.06
2022-08-11T16:37:28.977Z,23.28
2022-08-11T16:38:28.889Z,24.16
2022-08-11T16:39:28.890Z,23.96
2022-08-11T16:40:28.864Z,23.96
2022-08-11T16:41:33.887Z,24.76
2022-08-11T16:43:06.356Z,24.55
2022-08-11T16:43:29.849Z,24.27
2022-08-11T16:44:37.036Z,24.57
2022-08-11T16:45:29.807Z,23.86
2022-08-11T16:46:28.812Z,24.17
2022-08-11T16:48:02.664Z,24.47
2022-08-11T16:48:36.244Z,24.47
2022-08-11T16:49:34.231Z,24.66
2022-08-11T16:50:29.755Z,24.57
2022-08-11T16:51:28.745Z,24.47
2022-08-11T16:52:33.779Z,24.37
2022-08-11T16:53:54.853Z,24.37
2022-08-11T16:54:29.716Z,24.27